Time;durP1;ratioP1;P1;durP2;ratioP2;P2;SDS_P1;SDS_P2;PMS_P1;PMS_P2;Temp;Humidity;BMP_temperature;BMP_pressure;BME280_temperature;BME280_humidity;BME280_pressure;Samples;Min_cycle;Max_cycle;Signal;HPM_P1;HPM_P2
2022/06/30 04:02:23;;;;;;;8.63;7.70;;;;;;;22.14;76.56;100006.25;5554123;32;291114;-88
2022/06/30 04:05:27;;;;;;;8.50;7.70;;;;;;;22.14;76.56;100006.25;5543609;32;33505;-88
2022/06/30 04:08:29;;;;;;;12.10;7.72;;;;;;;21.73;78.04;100002.31;5543631;32;33666;-86
2022/06/30 04:11:32;;;;;;;12.07;7.30;;;;;;;21.77;77.82;100011.78;5543297;32;34949;-86
2022/06/30 04:14:35;;;;;;;10.95;7.30;;;;;;;21.92;77.44;100011.19;5542813;32;33731;-86
2022/06/30 04:17:38;;;;;;;10.55;7.57;;;;;;;22.02;74.84;100016.50;5542639;32;33960;-90
2022/06/30 04:20:41;;;;;;;7.60;6.90;;;;;;;22.20;74.40;100019.97;5548458;32;33702;-90
2022/06/30 04:23:44;;;;;;;9.80;6.97;;;;;;;22.37;74.17;100014.63;5553506;32;34669;-91
2022/06/30 04:26:46;;;;;;;10.52;6.70;;;;;;;22.59;74.83;100015.91;5544152;32;33727;-90
2022/06/30 04:29:50;;;;;;;8.20;6.75;;;;;;;22.78;71.11;100010.41;5542521;32;33702;-87
2022/06/30 04:32:52;;;;;;;9.65;7.07;;;;;;;22.96;71.84;100007.56;5542200;32;34395;-87
2022/06/30 04:35:55;;;;;;;6.70;6.05;;;;;;;23.12;69.49;100004.88;5549609;32;33710;-86
2022/06/30 04:38:58;;;;;;;9.10;6.72;;;;;;;23.34;67.44;100009.81;5543146;32;33922;-86
2022/06/30 04:42:03;;;;;;;8.63;6.35;;;;;;;23.57;67.00;100006.44;5543405;32;35446;-87
2022/06/30 04:45:06;;;;;;;9.52;5.72;;;;;;;23.64;64.57;100013.69;5557619;32;34062;-87
2022/06/30 04:48:09;;;;;;;9.77;6.00;;;;;;;23.90;64.55;100017.22;5559630;32;35414;-87
2022/06/30 04:51:12;;;;;;;11.23;6.03;;;;;;;23.71;63.44;100007.59;5545238;32;34811;-87
2022/06/30 04:54:15;;;;;;;7.55;6.25;;;;;;;23.86;62.52;100011.28;5541813;32;34294;-87
2022/06/30 04:57:18;;;;;;;7.07;5.85;;;;;;;24.15;62.88;100018.03;5524697;32;33724;-87
2022/06/30 05:00:25;;;;;;;12.32;6.35;;;;;;;24.29;61.32;100011.00;5522312;32;34493;-86
2022/06/30 05:03:28;;;;;;;8.73;6.30;;;;;;;24.30;60.91;99998.31;5526567;32;34397;-87
2022/06/30 05:06:31;;;;;;;9.52;5.62;;;;;;;24.58;60.66;100006.81;5526506;32;34108;-87
2022/06/30 05:09:34;;;;;;;6.80;6.12;;;;;;;24.85;58.82;100010.06;5541976;32;33848;-87
2022/06/30 05:12:37;;;;;;;7.28;6.12;;;;;;;25.10;58.33;99996.34;5533884;32;34215;-87
2022/06/30 05:15:39;;;;;;;9.38;6.10;;;;;;;25.42;57.10;100004.41;5515412;32;33852;-87
2022/06/30 05:18:42;;;;;;;11.23;6.32;;;;;;;25.69;55.47;100004.84;5519458;32;34243;-87
2022/06/30 05:21:44;;;;;;;11.30;6.22;;;;;;;26.27;53.55;100009.69;5510717;32;34103;-87
2022/06/30 05:28:08;;;;;;;11.07;5.60;;;;;;;31.65;38.92;99996.59;5510579;32;34638;-88
2022/06/30 05:31:12;;;;;;;12.43;5.40;;;;;;;34.63;34.89;99993.72;5510935;32;34240;-87
2022/06/30 05:34:15;;;;;;;7.03;5.12;;;;;;;37.03;30.38;99996.00;5511170;32;34689;-87
2022/06/30 05:37:19;;;;;;;6.20;5.22;;;;;;;39.05;27.43;100007.28;5509964;32;33526;-88
2022/06/30 05:40:21;;;;;;;5.32;4.87;;;;;;;40.22;25.87;100000.13;5510692;32;34242;-88
2022/06/30 05:43:25;;;;;;;7.78;4.82;;;;;;;40.97;25.00;99997.50;5529709;32;33757;-88
2022/06/30 05:46:28;;;;;;;5.28;4.72;;;;;;;41.74;23.69;100003.50;5528323;32;33982;-87
2022/06/30 05:49:31;;;;;;;7.95;5.22;;;;;;;42.30;22.59;100012.28;5529146;32;34730;-88
2022/06/30 05:52:33;;;;;;;8.65;5.10;;;;;;;42.72;22.06;100009.75;5529784;32;34033;-87
2022/06/30 05:55:36;;;;;;;8.45;5.32;;;;;;;42.81;21.72;100009.91;5529351;32;33793;-89
2022/06/30 05:58:42;;;;;;;7.30;4.75;;;;;;;43.19;20.70;100006.25;5529275;32;33861;-87
2022/06/30 06:01:44;;;;;;;9.77;5.00;;;;;;;43.63;20.68;100004.88;5529577;32;33580;-87
2022/06/30 06:04:47;;;;;;;6.70;4.78;;;;;;;43.95;19.94;100005.12;5529274;32;33904;-88
2022/06/30 06:07:51;;;;;;;11.23;4.40;;;;;;;44.90;19.30;100004.72;5528265;32;32557;-88
2022/06/30 06:10:55;;;;;;;6.93;4.60;;;;;;;45.30;18.84;100004.00;5522573;32;36234;-87
2022/06/30 06:13:58;;;;;;;7.78;4.82;;;;;;;44.73;18.75;100000.63;5516536;32;34854;-89
2022/06/30 06:17:01;;;;;;;6.43;4.50;;;;;;;43.88;19.39;100013.13;5519862;32;34187;-89
2022/06/30 06:20:03;;;;;;;7.85;4.55;;;;;;;42.67;20.28;100002.31;5527307;32;33988;-88
2022/06/30 06:23:06;;;;;;;7.90;4.78;;;;;;;43.41;18.73;99997.22;5528387;32;34382;-89
2022/06/30 06:26:09;;;;;;;10.80;4.50;;;;;;;44.18;17.46;99999.59;5519712;32;34203;-90
2022/06/30 06:29:14;;;;;;;12.77;4.35;;;;;;;44.90;17.67;100008.34;5529530;32;34381;-93
2022/06/30 06:32:17;;;;;;;4.95;3.87;;;;;;;43.78;18.05;100002.91;5530217;32;35261;-94
2022/06/30 06:35:21;;;;;;;6.78;4.22;;;;;;;44.29;16.78;100001.06;5520149;32;34404;-89
2022/06/30 06:38:23;;;;;;;6.65;4.28;;;;;;;41.95;18.48;99998.50;5510571;32;33848;-89
2022/06/30 06:41:26;;;;;;;6.47;4.10;;;;;;;40.95;19.60;99994.16;5511508;32;34835;-89
2022/06/30 06:44:29;;;;;;;5.93;4.05;;;;;;;40.54;19.78;100007.22;5527537;32;32352;-89
2022/06/30 06:47:32;;;;;;;6.28;4.10;;;;;;;39.29;21.84;99998.41;5531149;32;33815;-89
2022/06/30 06:50:35;;;;;;;9.23;4.25;;;;;;;38.88;21.32;99993.66;5519294;32;34078;-89
2022/06/30 06:53:38;;;;;;;5.32;3.83;;;;;;;37.62;23.17;99996.22;5528005;32;34212;-89
2022/06/30 06:56:40;;;;;;;7.90;4.30;;;;;;;37.34;24.04;99992.66;5536494;32;34383;-89
2022/06/30 06:59:43;;;;;;;6.70;4.20;;;;;;;37.12;23.29;99990.00;5556573;32;34774;-88
2022/06/30 07:02:46;;;;;;;7.78;4.10;;;;;;;36.95;23.01;99999.25;5561024;32;34101;-89
2022/06/30 07:05:49;;;;;;;10.07;4.40;;;;;;;36.21;24.56;99985.75;5563722;32;34027;-89
2022/06/30 07:08:51;;;;;;;6.07;4.43;;;;;;;35.31;25.10;99986.66;5550798;32;34638;-89
2022/06/30 07:11:54;;;;;;;10.43;4.10;;;;;;;35.74;25.23;99976.84;5549297;32;33863;-89
2022/06/30 07:14:57;;;;;;;7.45;4.40;;;;;;;35.38;25.15;99976.28;5549044;32;33780;-89
2022/06/30 07:17:59;;;;;;;6.25;4.20;;;;;;;35.40;25.06;99985.16;5548516;32;33816;-88
2022/06/30 07:21:02;;;;;;;5.45;4.50;;;;;;;35.53;25.61;99977.63;5549059;32;35090;-88
2022/06/30 07:24:06;;;;;;;7.65;4.40;;;;;;;35.91;24.55;99972.34;5549006;32;33686;-88
2022/06/30 07:27:08;;;;;;;13.73;4.75;;;;;;;35.60;24.65;99970.03;5531845;32;32365;-89
2022/06/30 07:30:11;;;;;;;10.27;4.03;;;;;;;35.13;25.23;99969.28;5541466;32;34469;-89
2022/06/30 07:33:14;;;;;;;6.47;4.40;;;;;;;34.39;25.57;99971.75;5538252;32;34189;-89
2022/06/30 07:36:17;;;;;;;9.32;4.70;;;;;;;34.95;25.10;99978.59;5548112;32;35326;-89
2022/06/30 07:39:19;;;;;;;9.55;4.82;;;;;;;35.26;24.68;99967.25;5530535;32;33805;-89
2022/06/30 07:42:22;;;;;;;9.57;4.60;;;;;;;35.42;24.24;99965.56;5533404;32;34715;-89
2022/06/30 07:45:25;;;;;;;6.00;4.47;;;;;;;34.73;24.28;99962.78;5547247;32;33769;-89
2022/06/30 07:48:28;;;;;;;9.40;4.40;;;;;;;34.77;25.12;99966.72;5552680;32;34071;-89
2022/06/30 07:51:30;;;;;;;8.63;4.40;;;;;;;35.40;23.49;99959.50;5534029;32;32545;-89
2022/06/30 07:54:33;;;;;;;7.35;4.43;;;;;;;35.54;23.82;99952.50;5535816;32;33843;-90
2022/06/30 07:57:37;;;;;;;10.30;4.40;;;;;;;35.63;23.38;99960.41;5542214;32;34095;-89
2022/06/30 08:00:40;;;;;;;7.22;4.12;;;;;;;36.25;23.39;99951.00;5545867;32;33531;-90
2022/06/30 08:03:43;;;;;;;6.47;4.30;;;;;;;36.00;22.99;99948.75;5537947;32;33700;-89
2022/06/30 08:06:46;;;;;;;5.85;4.37;;;;;;;35.60;23.67;99947.97;5548389;32;34453;-89
2022/06/30 08:09:49;;;;;;;7.97;4.47;;;;;;;35.63;24.05;99943.84;5620668;26;34421;-89
2022/06/30 08:12:52;;;;;;;8.23;4.45;;;;;;;35.64;24.19;99949.09;5547508;32;33555;-87
2022/06/30 08:15:55;;;;;;;7.70;4.70;;;;;;;36.21;23.49;99947.09;5535324;32;34048;-89
2022/06/30 08:18:58;;;;;;;9.38;4.05;;;;;;;36.71;23.58;99949.00;5547695;32;33792;-88
2022/06/30 08:22:01;;;;;;;10.43;4.80;;;;;;;36.25;23.37;99958.47;5552838;32;34083;-88
2022/06/30 08:25:04;;;;;;;9.20;4.60;;;;;;;36.05;23.52;99943.31;5560557;32;36485;-88
2022/06/30 08:28:08;;;;;;;6.95;4.28;;;;;;;36.52;22.76;99944.66;5532735;32;33683;-90
2022/06/30 08:34:49;;;;;;;7.40;4.17;;;;;;;36.73;21.94;99944.88;5560766;26;20069;-90
2022/06/30 08:37:54;;;;;;;4.15;3.83;;;;;;;37.54;21.70;99941.38;5529528;32;35224;-92
2022/06/30 08:44:21;;;;;;;6.03;4.28;;;;;;;37.32;21.64;99939.56;5522198;32;34150;-89
2022/06/30 08:47:30;;;;;;;10.15;4.15;;;;;;;36.84;22.06;99940.28;5525136;32;34222;-89
2022/06/30 08:50:34;;;;;;;8.38;4.20;;;;;;;36.95;22.33;99932.94;5528408;32;33965;-89
2022/06/30 08:54:00;;;;;;;13.85;4.47;;;;;;;37.70;21.34;99939.56;5525773;32;33746;-89
2022/06/30 08:57:03;;;;;;;8.85;3.87;;;;;;;36.76;21.77;99938.84;5530597;32;34074;-88
2022/06/30 09:00:09;;;;;;;7.28;4.30;;;;;;;36.54;21.80;99933.34;5533397;32;33724;-89
2022/06/30 09:03:12;;;;;;;7.50;4.15;;;;;;;37.66;21.24;99925.44;5535181;32;33805;-89
2022/06/30 09:06:15;;;;;;;7.15;4.05;;;;;;;37.83;21.10;99922.44;5531054;32;33896;-89
2022/06/30 09:09:36;;;;;;;7.45;3.95;;;;;;;38.07;21.27;99913.72;5527579;32;33993;-89
2022/06/30 09:12:41;;;;;;;5.78;3.75;;;;;;;38.90;20.36;99921.34;5524580;32;34370;-89
2022/06/30 09:15:44;;;;;;;9.02;4.32;;;;;;;39.00;19.82;99929.66;5525336;32;33998;-89
2022/06/30 09:18:46;;;;;;;5.78;3.92;;;;;;;37.91;20.51;99928.56;5497748;32;33877;-90
2022/06/30 09:22:10;;;;;;;5.70;4.28;;;;;;;37.95;19.87;99924.16;5535430;26;36038;-89
2022/06/30 09:25:20;;;;;;;7.28;3.85;;;;;;;37.95;19.80;99919.44;5548134;26;34512;-88
2022/06/30 09:28:54;;;;;;;5.37;3.60;;;;;;;39.27;19.53;99922.13;5549613;32;34071;-89
2022/06/30 09:32:16;;;;;;;6.10;3.55;;;;;;;37.91;19.52;99918.34;5544714;32;34616;-89
2022/06/30 09:35:30;;;;;;;10.35;3.85;;;;;;;38.50;19.65;99921.81;5550051;32;32344;-88
2022/06/30 09:38:33;;;;;;;7.93;3.87;;;;;;;39.13;19.01;99913.56;5550837;32;34275;-88
2022/06/30 09:41:39;;;;;;;6.82;3.33;;;;;;;38.93;18.54;99918.84;5554071;32;33869;-88
2022/06/30 09:44:48;;;;;;;8.27;3.75;;;;;;;39.02;18.91;99919.13;5559375;32;34235;-89
2022/06/30 09:47:54;;;;;;;10.93;3.72;;;;;;;38.98;19.01;99912.44;5549372;32;35157;-89
2022/06/30 09:50:58;;;;;;;10.43;3.70;;;;;;;39.53;18.14;99902.66;5550100;32;34055;-89
2022/06/30 09:54:09;;;;;;;7.22;3.60;;;;;;;39.70;18.37;99902.31;5549820;32;33756;-89
2022/06/30 09:57:12;;;;;;;5.40;4.03;;;;;;;38.95;18.98;99911.06;5549073;32;34433;-89
2022/06/30 10:00:16;;;;;;;4.55;3.60;;;;;;;39.00;19.35;99907.47;5546406;32;35116;-90
2022/06/30 10:03:20;;;;;;;5.43;3.28;;;;;;;38.99;18.35;99902.16;5530439;32;33055;-90
2022/06/30 10:06:22;;;;;;;7.50;3.62;;;;;;;38.52;18.17;99900.22;5533889;32;34477;-90
2022/06/30 10:09:25;;;;;;;9.02;3.30;;;;;;;38.11;18.58;99898.19;5529566;32;33601;-90
2022/06/30 10:12:28;;;;;;;3.87;3.37;;;;;;;38.01;18.85;99882.38;5529723;32;34903;-90
2022/06/30 10:15:36;;;;;;;4.85;3.60;;;;;;;37.57;19.42;99900.19;5535775;32;34685;-90
2022/06/30 10:18:40;;;;;;;9.43;3.80;;;;;;;38.16;19.03;99880.78;5530381;32;34279;-89
2022/06/30 10:21:43;;;;;;;7.05;3.58;;;;;;;39.16;18.49;99883.31;5529687;32;34969;-89
2022/06/30 10:24:46;;;;;;;5.30;3.75;;;;;;;39.74;17.85;99884.84;5530992;32;33566;-90
2022/06/30 10:27:50;;;;;;;5.37;3.85;;;;;;;39.93;17.85;99887.00;5555462;32;34949;-90
2022/06/30 10:31:11;;;;;;;6.18;3.47;;;;;;;41.34;16.93;99883.97;5564682;32;33963;-90
2022/06/30 10:34:19;;;;;;;8.02;3.75;;;;;;;42.31;15.92;99874.62;5552718;32;33646;-89
2022/06/30 10:37:40;;;;;;;10.55;3.80;;;;;;;41.67;16.18;99866.59;5542598;32;32820;-90
2022/06/30 10:40:59;;;;;;;7.12;3.30;;;;;;;39.86;16.92;99867.03;5537089;32;32241;-89
2022/06/30 10:44:08;;;;;;;7.10;3.22;;;;;;;38.37;17.94;99865.03;5549988;32;33527;-89
2022/06/30 10:47:11;;;;;;;3.83;3.37;;;;;;;38.29;18.12;99876.66;5556895;32;34098;-90
2022/06/30 10:50:30;;;;;;;6.95;3.60;;;;;;;38.39;18.29;99865.59;5563803;32;34196;-91
2022/06/30 10:53:35;;;;;;;4.40;3.20;;;;;;;37.97;18.81;99855.50;5557952;32;33820;-91
2022/06/30 10:56:53;;;;;;;9.10;3.40;;;;;;;38.21;18.03;99864.16;5539598;32;32839;-90
2022/06/30 10:59:56;;;;;;;4.15;3.00;;;;;;;38.26;18.05;99858.63;5551930;32;34419;-89
2022/06/30 11:03:01;;;;;;;7.70;3.70;;;;;;;38.65;17.78;99856.50;5550459;32;33892;-88
2022/06/30 12:03:43;;;;;;;5.82;3.35;;;;;;;37.64;17.65;99792.06;3334648;26;20486;-88
2022/06/30 12:06:46;;;;;;;3.95;3.00;;;;;;;37.70;18.42;99787.37;5495767;32;32755;-88
